Time;durP1;ratioP1;P1;durP2;ratioP2;P2;SDS_P1;SDS_P2;PMS_P1;PMS_P2;Temp;Humidity;BMP_temperature;BMP_pressure;BME280_temperature;BME280_humidity;BME280_pressure;Samples;Min_cycle;Max_cycle;Signal;HPM_P1;HPM_P2
2023/09/24 00:02:10;;;;;;;16.00;6.10;;;;;;;18.75;47.18;99847.54;78491;1310;3013523;-65
2023/09/24 00:04:37;;;;;;;17.20;6.70;;;;;;;18.72;47.43;99849.05;78574;1314;3013258;-67
2023/09/24 00:07:05;;;;;;;16.80;6.60;;;;;;;18.68;47.36;99846.89;77275;1315;3053825;-68
2023/09/24 00:09:32;;;;;;;20.30;7.40;;;;;;;18.66;47.84;99847.13;78598;1309;3014807;-67
2023/09/24 00:11:59;;;;;;;18.50;6.90;;;;;;;18.62;47.96;99849.08;78434;1314;3012214;-68
2023/09/24 00:14:27;;;;;;;15.90;6.20;;;;;;;18.56;47.96;99842.80;77465;1308;3057138;-71
2023/09/24 00:16:54;;;;;;;17.50;6.70;;;;;;;18.53;48.32;99841.17;78447;1309;3013191;-67
2023/09/24 00:19:20;;;;;;;14.10;7.10;;;;;;;18.46;48.36;99840.29;78470;1310;3011706;-63
2023/09/24 00:21:49;;;;;;;21.50;6.80;;;;;;;18.43;48.38;99840.06;77327;1314;3051262;-63
2023/09/24 00:24:18;;;;;;;14.40;6.30;;;;;;;18.40;48.31;99837.80;78672;1316;3012782;-64
2023/09/24 00:26:45;;;;;;;18.50;6.40;;;;;;;18.41;48.17;99835.29;78535;1309;3011753;-69
2023/09/24 00:29:13;;;;;;;15.70;6.70;;;;;;;18.35;48.14;99839.35;77167;1314;3055957;-72
2023/09/24 00:31:40;;;;;;;25.40;6.80;;;;;;;18.31;48.19;99837.77;78530;1309;3011588;-68
2023/09/24 00:34:06;;;;;;;17.20;6.80;;;;;;;18.30;48.17;99838.86;78663;1309;3013025;-72
2023/09/24 00:36:35;;;;;;;16.80;6.30;;;;;;;18.29;48.05;99842.18;77307;1315;3027977;-67
2023/09/24 00:39:02;;;;;;;21.50;7.20;;;;;;;18.26;48.32;99843.11;78493;1309;3013809;-68
2023/09/24 00:41:29;;;;;;;19.00;5.70;;;;;;;18.22;48.41;99848.06;78427;1314;3013909;-64
2023/09/24 00:43:57;;;;;;;11.90;6.20;;;;;;;18.20;48.03;99845.23;77003;1309;3026818;-75
2023/09/24 00:46:25;;;;;;;24.00;6.00;;;;;;;18.18;48.22;99844.58;78442;1310;3011769;-75
2023/09/24 00:48:52;;;;;;;21.20;5.90;;;;;;;18.12;48.44;99845.73;78452;1314;3011692;-69
2023/09/24 00:51:21;;;;;;;14.10;6.00;;;;;;;18.06;48.93;99846.40;77241;1314;3053592;-71
2023/09/24 00:53:50;;;;;;;11.30;5.10;;;;;;;18.02;48.41;99844.83;78505;1313;3012177;-66
2023/09/24 00:56:18;;;;;;;17.60;5.80;;;;;;;18.02;48.47;99843.41;77158;1309;3026069;-69
2023/09/24 00:58:50;;;;;;;16.20;6.10;;;;;;;18.01;48.53;99843.49;78438;1309;3019328;-62
2023/09/24 01:01:24;;;;;;;13.90;5.90;;;;;;;17.99;48.73;99839.20;76929;1309;3049425;-69
2023/09/24 01:03:51;;;;;;;18.50;6.10;;;;;;;17.96;48.74;99836.85;78392;1309;3013350;-71
2023/09/24 01:06:19;;;;;;;16.10;5.90;;;;;;;17.91;49.16;99835.27;76963;1314;3049609;-70
2023/09/24 01:08:47;;;;;;;16.40;5.60;;;;;;;17.88;49.32;99836.55;78434;1315;3012758;-70
2023/09/24 01:11:14;;;;;;;14.40;5.40;;;;;;;17.86;49.61;99836.73;78203;1309;3012937;-69
2023/09/24 01:13:43;;;;;;;20.00;5.70;;;;;;;17.83;50.05;99838.95;77251;1313;3052150;-63
2023/09/24 01:16:12;;;;;;;19.00;6.30;;;;;;;17.81;49.57;99837.19;78478;1308;3012047;-70
2023/09/24 01:18:41;;;;;;;14.80;5.30;;;;;;;17.78;49.92;99840.98;77204;1315;3028793;-66
2023/09/24 01:21:17;;;;;;;11.80;5.20;;;;;;;17.79;49.92;99840.06;78642;1308;3013639;-72
2023/09/24 01:23:46;;;;;;;15.50;5.70;;;;;;;17.75;50.58;99838.91;77089;1315;3052518;-75
2023/09/24 01:26:16;;;;;;;16.30;5.60;;;;;;;17.72;50.57;99837.44;78550;1313;3012924;-64
2023/09/24 01:28:44;;;;;;;12.00;5.40;;;;;;;17.69;50.37;99833.98;77004;1315;3052329;-69
2023/09/24 01:31:11;;;;;;;19.30;5.50;;;;;;;17.69;50.36;99836.46;78617;1309;3013671;-64
2023/09/24 01:33:39;;;;;;;12.80;5.40;;;;;;;17.68;50.09;99836.14;78616;1309;3013516;-69
2023/09/24 01:36:10;;;;;;;13.90;5.30;;;;;;;17.69;50.70;99839.48;77352;1310;3050896;-63
2023/09/24 01:38:40;;;;;;;9.90;5.60;;;;;;;17.67;50.59;99836.23;79113;1315;3011716;-64
2023/09/24 01:41:10;;;;;;;21.00;6.00;;;;;;;17.64;50.55;99831.38;78093;1313;3052139;-62
2023/09/24 01:43:39;;;;;;;12.50;5.90;;;;;;;17.60;50.75;99834.17;79417;1315;3011635;-71
2023/09/24 01:46:07;;;;;;;20.50;6.00;;;;;;;17.58;50.61;99836.14;77283;1314;3029501;-64
2023/09/24 01:48:34;;;;;;;15.30;5.70;;;;;;;17.56;50.93;99844.23;78269;1309;3013701;-70
2023/09/24 01:51:10;;;;;;;16.90;6.00;;;;;;;17.54;50.96;99845.34;78353;1308;3011668;-68
2023/09/24 01:53:39;;;;;;;17.90;6.10;;;;;;;17.53;50.86;99846.43;77279;1314;3050992;-68
2023/09/24 01:56:07;;;;;;;13.60;5.10;;;;;;;17.53;50.74;99853.34;78532;1314;3013288;-63
2023/09/24 01:58:37;;;;;;;14.60;5.60;;;;;;;17.51;50.70;99852.59;78364;1309;3011566;-66
2023/09/24 02:01:06;;;;;;;26.10;5.60;;;;;;;17.49;50.72;99854.05;77112;1315;3051970;-64
2023/09/24 02:03:34;;;;;;;15.30;5.40;;;;;;;17.47;50.64;99855.80;78603;1309;3013303;-64
2023/09/24 02:06:01;;;;;;;10.40;4.60;;;;;;;17.42;50.81;99857.23;78339;1309;3013516;-75
2023/09/24 02:08:30;;;;;;;16.10;5.30;;;;;;;17.40;51.02;99856.22;77049;1315;3051047;-61
2023/09/24 02:10:57;;;;;;;15.50;5.10;;;;;;;17.39;50.82;99859.98;78405;1314;3014977;-72
2023/09/24 02:13:24;;;;;;;12.80;5.40;;;;;;;17.37;50.80;99858.77;78402;1310;3011981;-64
2023/09/24 02:15:52;;;;;;;12.80;5.40;;;;;;;17.38;50.82;99858.67;76913;1315;3052735;-70
2023/09/24 02:18:20;;;;;;;10.40;5.30;;;;;;;17.34;50.97;99858.09;78395;1309;3013042;-75
2023/09/24 02:20:48;;;;;;;14.60;5.00;;;;;;;17.33;50.91;99862.65;78410;1309;3011522;-70
2023/09/24 02:23:16;;;;;;;9.50;4.50;;;;;;;17.29;50.75;99860.25;76990;1315;3050535;-71
2023/09/24 02:25:44;;;;;;;19.00;5.30;;;;;;;17.25;50.92;99857.39;78568;1308;3013431;-59
2023/09/24 02:28:11;;;;;;;11.00;5.00;;;;;;;17.21;50.97;99854.41;78484;1310;3013322;-70
2023/09/24 02:30:40;;;;;;;13.60;4.60;;;;;;;17.19;50.86;99856.86;77243;1315;3053247;-68
2023/09/24 02:33:06;;;;;;;10.60;4.90;;;;;;;17.17;50.96;99855.23;78240;1311;3014698;-70
2023/09/24 02:35:33;;;;;;;12.10;5.10;;;;;;;17.17;50.96;99860.27;78394;1310;3011739;-74
2023/09/24 02:38:01;;;;;;;15.20;5.20;;;;;;;17.19;50.78;99862.36;77316;1308;3048637;-69
2023/09/24 02:40:28;;;;;;;13.70;5.00;;;;;;;17.16;51.06;99861.76;78390;1314;3018654;-65
2023/09/24 02:42:56;;;;;;;16.50;5.30;;;;;;;17.15;50.95;99861.60;78336;1309;3011754;-68
2023/09/24 02:45:24;;;;;;;15.80;4.70;;;;;;;17.13;51.24;99854.91;77278;1314;3051119;-67
2023/09/24 02:47:51;;;;;;;15.60;4.70;;;;;;;17.08;50.90;99852.80;78468;1309;3013222;-70
2023/09/24 02:50:23;;;;;;;8.60;4.10;;;;;;;17.04;51.20;99847.26;78492;1309;3011411;-71
2023/09/24 02:52:56;;;;;;;12.80;4.80;;;;;;;17.04;51.10;99849.38;77187;1315;3050896;-73
2023/09/24 02:55:23;;;;;;;9.50;4.60;;;;;;;17.00;51.34;99847.28;78674;1308;3011539;-73
2023/09/24 02:57:51;;;;;;;13.50;3.70;;;;;;;17.00;51.08;99840.34;77320;1315;3028662;-69
2023/09/24 03:01:05;;;;;;;15.70;4.30;;;;;;;16.98;51.16;99837.89;78730;1309;3013192;-66
2023/09/24 03:03:09;;;;;;;11.70;4.10;;;;;;;16.93;51.36;99833.85;77323;1315;3056931;-66
2023/09/24 03:05:36;;;;;;;13.00;3.80;;;;;;;16.88;51.57;99838.27;78329;1315;3015274;-72
2023/09/24 03:08:04;;;;;;;8.30;4.20;;;;;;;16.84;51.69;99835.80;78477;1309;3011887;-66
2023/09/24 03:10:33;;;;;;;15.60;4.70;;;;;;;16.80;51.79;99835.54;77516;1314;3052928;-67
2023/09/24 03:13:00;;;;;;;10.10;4.00;;;;;;;16.78;51.77;99838.34;78382;1315;3011956;-64
2023/09/24 03:15:27;;;;;;;10.90;4.50;;;;;;;16.79;51.61;99833.33;78392;1309;3011619;-70
2023/09/24 03:17:55;;;;;;;16.70;5.50;;;;;;;16.80;51.35;99835.39;77213;1315;3056493;-64
2023/09/24 03:20:21;;;;;;;14.20;4.40;;;;;;;16.76;51.92;99836.77;78396;1309;3013597;-69
2023/09/24 03:22:50;;;;;;;17.30;4.10;;;;;;;16.72;52.00;99834.80;78438;1309;3012107;-66
2023/09/24 03:25:22;;;;;;;14.40;4.40;;;;;;;16.70;51.83;99836.33;77385;1309;3053117;-66
2023/09/24 03:27:52;;;;;;;19.80;4.70;;;;;;;16.68;52.03;99830.02;78582;1314;3011725;-64
2023/09/24 03:30:20;;;;;;;11.20;4.40;;;;;;;16.61;52.30;99833.34;77216;1309;3069527;-68
2023/09/24 03:32:48;;;;;;;14.30;4.50;;;;;;;16.59;52.45;99837.41;78701;1309;3012467;-70
2023/09/24 03:35:21;;;;;;;15.00;4.70;;;;;;;16.58;52.23;99833.75;77922;1308;3011515;-67
2023/09/24 03:37:47;;;;;;;13.30;4.70;;;;;;;16.55;52.09;99838.11;78318;1309;3011982;-61
2023/09/24 03:40:17;;;;;;;8.90;4.00;;;;;;;16.53;52.17;99838.08;77936;1315;3011678;-66
2023/09/24 03:42:44;;;;;;;11.00;4.10;;;;;;;16.49;52.44;99839.31;78593;1308;3012909;-62
2023/09/24 03:45:13;;;;;;;12.20;4.60;;;;;;;16.47;52.35;99841.04;78521;1309;3011602;-67
2023/09/24 03:47:41;;;;;;;9.40;3.80;;;;;;;16.47;52.74;99845.13;77339;1315;3068773;-70
2023/09/24 03:50:13;;;;;;;12.30;4.60;;;;;;;16.41;53.24;99851.92;78336;1315;3013374;-70
2023/09/24 03:52:41;;;;;;;16.00;4.40;;;;;;;16.40;53.30;99852.50;77250;1309;3050283;-69
2023/09/24 03:55:08;;;;;;;15.60;4.40;;;;;;;16.38;53.84;99853.58;78504;1308;3019181;-66
2023/09/24 03:57:37;;;;;;;8.70;4.60;;;;;;;16.39;54.02;99856.20;78598;1310;3011857;-68
2023/09/24 04:00:11;;;;;;;13.10;4.70;;;;;;;16.38;54.25;99851.08;77427;1314;3051996;-67
2023/09/24 04:02:49;;;;;;;16.20;5.20;;;;;;;16.38;54.48;99858.38;77018;1315;3069491;-70
2023/09/24 04:05:19;;;;;;;16.60;4.40;;;;;;;16.33;54.72;99855.53;77874;1308;3013440;-71
2023/09/24 04:07:46;;;;;;;18.40;4.70;;;;;;;16.30;54.89;99852.25;78523;1311;3011857;-67
2023/09/24 04:10:14;;;;;;;16.30;4.90;;;;;;;16.32;54.54;99853.35;78539;1309;3011742;-70
2023/09/24 04:12:43;;;;;;;22.20;4.90;;;;;;;16.32;54.67;99853.38;77209;1309;3054094;-66
2023/09/24 04:15:09;;;;;;;25.60;4.70;;;;;;;16.33;54.64;99860.17;78558;1313;3012804;-68
2023/09/24 04:17:42;;;;;;;20.00;5.30;;;;;;;16.37;54.33;99860.38;78414;1308;3011901;-70
2023/09/24 04:20:15;;;;;;;17.00;5.80;;;;;;;16.41;54.39;99858.27;77244;1314;3069791;-70
2023/09/24 04:22:44;;;;;;;21.70;5.50;;;;;;;16.45;54.27;99862.41;78695;1310;3012128;-70
2023/09/24 04:25:15;;;;;;;20.50;5.40;;;;;;;16.44;54.51;99866.14;77266;1314;3057461;-65
2023/09/24 04:27:42;;;;;;;15.90;5.60;;;;;;;16.45;54.56;99869.85;78552;1313;3011587;-76
2023/09/24 04:30:16;;;;;;;22.90;5.80;;;;;;;16.42;54.57;99869.84;77979;1308;3011783;-68
2023/09/24 04:32:51;;;;;;;16.90;5.80;;;;;;;16.42;55.01;99869.50;78619;1309;3011436;-67
2023/09/24 04:35:20;;;;;;;19.80;5.50;;;;;;;16.45;54.89;99870.91;77245;1315;3053365;-69
2023/09/24 04:37:47;;;;;;;20.20;6.00;;;;;;;16.49;54.58;99867.05;78820;1309;3013218;-71
2023/09/24 04:40:14;;;;;;;24.60;5.50;;;;;;;16.51;54.90;99867.23;78396;1309;3011872;-72
2023/09/24 04:42:43;;;;;;;31.90;6.40;;;;;;;16.53;54.92;99867.27;77157;1315;3056047;-65
2023/09/24 04:45:11;;;;;;;20.10;5.60;;;;;;;16.57;54.85;99870.63;78524;1308;3013506;-68
2023/09/24 04:47:40;;;;;;;29.50;5.60;;;;;;;16.61;55.00;99870.66;78348;1314;3012061;-75
2023/09/24 04:50:15;;;;;;;30.30;6.30;;;;;;;16.62;55.30;99877.87;77338;1313;3052745;-72
2023/09/24 04:52:47;;;;;;;34.20;6.70;;;;;;;16.66;55.15;99877.93;78077;1309;3012980;-62
2023/09/24 04:55:13;;;;;;;29.30;6.10;;;;;;;16.65;55.72;99875.67;78428;1308;3012149;-72
2023/09/24 04:57:46;;;;;;;24.90;6.80;;;;;;;16.67;55.62;99876.23;77912;1309;3011846;-64
2023/09/24 05:00:14;;;;;;;36.20;8.30;;;;;;;16.73;55.30;99877.52;78559;1315;3011739;-64
2023/09/24 05:02:42;;;;;;;34.70;6.60;;;;;;;16.74;55.47;99879.34;77460;1309;3056834;-73
2023/09/24 05:05:10;;;;;;;33.50;7.10;;;;;;;16.77;55.53;99878.22;78571;1309;3013727;-70
2023/09/24 05:07:36;;;;;;;28.10;7.10;;;;;;;16.82;55.39;99882.31;78421;1310;3011631;-66
2023/09/24 05:10:05;;;;;;;25.00;6.10;;;;;;;16.86;55.41;99886.72;77354;1315;3054111;-66
2023/09/24 05:12:32;;;;;;;19.70;6.10;;;;;;;16.90;55.42;99884.34;78577;1313;3013065;-69
2023/09/24 05:14:58;;;;;;;31.20;6.20;;;;;;;16.91;55.54;99890.77;78657;1309;3011563;-67
2023/09/24 05:17:26;;;;;;;16.40;5.70;;;;;;;16.98;55.58;99895.91;77298;1314;3056702;-66
2023/09/24 05:19:54;;;;;;;23.00;5.80;;;;;;;17.02;55.73;99893.33;78687;1310;3013777;-65
2023/09/24 05:22:21;;;;;;;23.20;6.00;;;;;;;17.06;55.25;99892.58;78569;1310;3013585;-70
2023/09/24 05:24:49;;;;;;;17.60;5.90;;;;;;;17.13;55.36;99899.83;78082;1308;3053844;-72
2023/09/24 05:27:17;;;;;;;25.80;5.30;;;;;;;17.19;55.71;99901.85;79539;1309;3020437;-72
2023/09/24 05:29:48;;;;;;;23.50;5.90;;;;;;;17.25;55.51;99907.36;78715;1309;3013246;-72
2023/09/24 05:32:16;;;;;;;28.00;5.60;;;;;;;17.33;55.08;99912.94;77320;1309;3057153;-69
2023/09/24 05:34:43;;;;;;;22.10;6.20;;;;;;;17.33;55.89;99908.83;78570;1312;3020747;-70
2023/09/24 05:37:10;;;;;;;27.30;5.90;;;;;;;17.39;55.50;99902.00;78411;1313;3011844;-63
2023/09/24 05:39:37;;;;;;;36.00;5.80;;;;;;;17.43;55.29;99906.02;77383;1314;3026518;-62
2023/09/24 05:42:05;;;;;;;30.50;6.30;;;;;;;17.47;55.44;99906.61;78496;1314;3013478;-69
2023/09/24 05:44:32;;;;;;;30.60;6.20;;;;;;;17.54;55.28;99910.48;78484;1311;3013038;-64
2023/09/24 05:47:00;;;;;;;25.50;5.30;;;;;;;17.56;55.32;99918.59;77205;1312;3056896;-68
2023/09/24 05:49:27;;;;;;;27.30;5.90;;;;;;;17.62;55.21;99916.23;78659;1312;3012447;-71
2023/09/24 05:51:54;;;;;;;19.70;5.50;;;;;;;17.65;55.05;99919.31;78441;1308;3011644;-68
2023/09/24 05:54:22;;;;;;;23.40;4.90;;;;;;;17.70;55.52;99920.50;77341;1315;3052935;-72
2023/09/24 05:56:48;;;;;;;23.20;5.50;;;;;;;17.73;54.97;99923.57;78492;1314;3018816;-73
2023/09/24 05:59:15;;;;;;;30.10;5.10;;;;;;;17.81;55.29;99922.75;78382;1315;3011646;-66
2023/09/24 06:01:43;;;;;;;24.70;6.20;;;;;;;17.88;55.07;99929.46;77305;1315;3028880;-71
2023/09/24 06:04:09;;;;;;;36.30;6.00;;;;;;;17.95;54.94;99925.20;78443;1315;3013645;-68
2023/09/24 06:06:37;;;;;;;23.90;5.20;;;;;;;18.01;54.48;99926.27;78631;1312;3011645;-68
2023/09/24 06:09:09;;;;;;;26.60;4.90;;;;;;;18.09;54.40;99928.43;77270;1308;3052754;-67
2023/09/24 06:11:37;;;;;;;36.30;6.10;;;;;;;18.16;54.69;99928.73;78738;1315;3012092;-77
2023/09/24 06:14:08;;;;;;;34.90;5.90;;;;;;;18.23;54.74;99930.39;77556;1314;3068684;-67
2023/09/24 06:16:36;;;;;;;30.10;6.30;;;;;;;18.28;54.94;99931.43;78717;1310;3011936;-69
2023/09/24 06:19:04;;;;;;;40.60;6.70;;;;;;;18.36;54.81;99934.25;77119;1314;3027049;-68
2023/09/24 06:21:31;;;;;;;29.00;6.10;;;;;;;18.46;54.64;99939.85;78534;1310;3013642;-70
2023/09/24 06:23:57;;;;;;;20.80;5.30;;;;;;;18.55;54.54;99935.88;78524;1309;3013231;-70
2023/09/24 06:26:25;;;;;;;24.30;4.90;;;;;;;18.64;53.83;99940.60;77170;1314;3051839;-62
2023/09/24 06:28:52;;;;;;;17.80;5.50;;;;;;;18.72;53.66;99940.81;78623;1311;3018327;-65
2023/09/24 06:31:20;;;;;;;29.30;5.00;;;;;;;18.80;53.46;99948.95;78774;1308;3012995;-64
2023/09/24 06:33:48;;;;;;;18.70;5.30;;;;;;;18.89;53.78;99951.25;77412;1314;3056359;-72
2023/09/24 06:36:16;;;;;;;22.80;4.80;;;;;;;18.98;53.61;99951.17;78953;1308;3012874;-70
2023/09/24 06:38:44;;;;;;;14.10;4.10;;;;;;;19.08;53.06;99956.77;78828;1309;3013005;-68
2023/09/24 06:41:12;;;;;;;25.30;4.90;;;;;;;19.18;53.01;99956.67;77803;1308;3052948;-62
2023/09/24 06:43:38;;;;;;;27.80;4.70;;;;;;;19.28;52.96;99959.67;79322;1309;3018780;-62
2023/09/24 06:46:05;;;;;;;21.10;4.50;;;;;;;19.39;52.91;99960.09;79996;1315;3011407;-61
2023/09/24 06:48:34;;;;;;;20.90;4.70;;;;;;;19.52;52.53;99961.11;78756;1309;3026130;-68
2023/09/24 06:51:10;;;;;;;25.10;5.40;;;;;;;19.65;52.44;99960.85;79537;1315;3012843;-71
2023/09/24 06:53:39;;;;;;;17.00;4.50;;;;;;;19.78;52.25;99958.39;77418;1314;3049301;-60
2023/09/24 06:56:06;;;;;;;31.30;5.10;;;;;;;19.88;51.80;99955.04;78979;1315;3013109;-67
2023/09/24 06:58:34;;;;;;;21.10;4.50;;;;;;;19.97;51.82;99952.25;78989;1310;3011549;-64
2023/09/24 07:01:03;;;;;;;26.20;5.20;;;;;;;20.06;51.72;99952.47;77428;1314;3052620;-69
2023/09/24 07:03:30;;;;;;;20.00;4.40;;;;;;;20.17;51.41;99948.98;78651;1312;3012028;-64
2023/09/24 07:05:57;;;;;;;21.70;5.10;;;;;;;20.29;51.26;99952.45;78629;1309;3011554;-65
2023/09/24 07:08:25;;;;;;;18.10;4.60;;;;;;;20.41;51.04;99949.60;77363;1309;3049503;-64
2023/09/24 07:11:31;;;;;;;23.40;4.70;;;;;;;20.50;50.73;99953.34;78582;1315;3012759;-65
2023/09/24 07:13:59;;;;;;;20.90;4.80;;;;;;;20.65;50.55;99959.55;77295;1309;3069067;-65
2023/09/24 07:16:26;;;;;;;28.80;5.20;;;;;;;20.77;50.41;99954.52;78767;1309;3012953;-64
2023/09/24 07:18:54;;;;;;;28.90;4.70;;;;;;;20.90;50.15;99956.55;78500;1313;3011825;-66
2023/09/24 07:21:24;;;;;;;18.10;4.80;;;;;;;20.99;49.75;99954.20;77475;1314;3053384;-66
2023/09/24 07:23:52;;;;;;;22.70;5.50;;;;;;;21.10;49.89;99953.02;78582;1308;3011535;-65
2023/09/24 07:26:22;;;;;;;18.70;4.60;;;;;;;21.21;50.02;99950.33;78208;1312;3011411;-66
2023/09/24 07:28:49;;;;;;;15.00;4.70;;;;;;;21.33;49.97;99946.08;78758;1314;3013249;-66
2023/09/24 07:31:21;;;;;;;19.50;5.10;;;;;;;21.47;49.84;99951.20;78790;1308;3013693;-62
2023/09/24 07:33:51;;;;;;;22.00;4.80;;;;;;;21.61;49.30;99956.44;77600;1309;3056696;-64
2023/09/24 07:36:18;;;;;;;24.50;5.70;;;;;;;21.71;49.07;99962.23;78794;1309;3013336;-65
2023/09/24 07:38:44;;;;;;;27.20;4.90;;;;;;;21.82;48.89;99959.15;78691;1309;3012006;-65
2023/09/24 07:41:12;;;;;;;22.10;4.90;;;;;;;21.94;48.48;99960.60;77600;1315;3053733;-65
2023/09/24 07:43:41;;;;;;;25.90;4.80;;;;;;;22.03;48.20;99965.82;78807;1314;3013249;-64
2023/09/24 07:46:15;;;;;;;38.50;7.20;;;;;;;22.13;47.99;99967.45;78747;1309;3013178;-63
2023/09/24 07:48:43;;;;;;;54.10;7.70;;;;;;;22.23;47.81;99961.27;77455;1309;3056075;-64
2023/09/24 07:51:11;;;;;;;49.60;8.60;;;;;;;22.34;47.45;99959.13;78523;1312;3013535;-64
2023/09/24 07:53:37;;;;;;;51.00;8.30;;;;;;;22.46;47.31;99961.14;78624;1309;3011488;-65
2023/09/24 07:56:09;;;;;;;50.20;7.50;;;;;;;22.54;47.39;99959.70;77291;1314;3053173;-65
2023/09/24 07:58:38;;;;;;;32.00;6.40;;;;;;;22.65;47.38;99955.02;78605;1315;3011919;-65
2023/09/24 08:01:07;;;;;;;36.00;6.40;;;;;;;22.77;47.17;99959.48;77536;1315;3068783;-65
2023/09/24 08:03:34;;;;;;;36.50;6.30;;;;;;;22.89;47.07;99959.88;78666;1309;3012812;-65
2023/09/24 08:06:00;;;;;;;36.00;5.70;;;;;;;23.00;46.86;99960.73;78549;1315;3013205;-64
2023/09/24 08:08:29;;;;;;;25.50;5.40;;;;;;;23.12;46.76;99957.83;77279;1309;3053650;-65
2023/09/24 08:10:56;;;;;;;31.20;5.80;;;;;;;23.23;46.46;99955.73;78524;1314;3014118;-63
2023/09/24 08:13:23;;;;;;;25.20;5.30;;;;;;;23.30;46.34;99950.77;78573;1314;3011625;-64
2023/09/24 08:15:51;;;;;;;36.40;7.00;;;;;;;23.41;45.92;99951.39;77376;1309;3067741;-65
2023/09/24 08:18:18;;;;;;;50.30;6.70;;;;;;;23.51;45.74;99952.52;78995;1310;3012911;-64
2023/09/24 08:20:44;;;;;;;32.60;6.80;;;;;;;23.57;45.05;99949.09;78830;1309;3012872;-65
2023/09/24 08:23:13;;;;;;;36.60;6.70;;;;;;;23.63;44.78;99949.55;77304;1308;3025920;-65
2023/09/24 08:25:40;;;;;;;40.10;6.70;;;;;;;23.71;44.28;99948.10;78589;1315;3018661;-65
2023/09/24 08:28:08;;;;;;;44.10;6.10;;;;;;;23.80;43.86;99950.79;78431;1315;3011649;-64
2023/09/24 08:30:36;;;;;;;37.50;5.60;;;;;;;23.85;43.48;99944.32;77486;1314;3070871;-65
2023/09/24 08:33:04;;;;;;;44.30;5.80;;;;;;;23.86;43.13;99944.02;78572;1309;3013284;-65
2023/09/24 08:35:30;;;;;;;33.70;5.30;;;;;;;23.98;43.36;99944.17;78480;1309;3011742;-65
2023/09/24 08:37:58;;;;;;;40.50;5.90;;;;;;;24.12;43.51;99945.67;77389;1310;3054143;-65
2023/09/24 08:40:26;;;;;;;26.20;5.40;;;;;;;24.23;42.99;99946.96;78530;1314;3018502;-64
2023/09/24 08:42:53;;;;;;;52.70;6.20;;;;;;;24.36;42.93;99941.84;78286;1315;3011560;-65
2023/09/24 08:45:21;;;;;;;37.70;6.00;;;;;;;24.45;42.80;99945.13;77287;1315;3069978;-66
2023/09/24 08:47:47;;;;;;;49.30;6.80;;;;;;;24.53;41.94;99947.84;78593;1309;3012976;-67
2023/09/24 08:50:14;;;;;;;44.90;6.10;;;;;;;24.62;41.54;99941.82;78541;1308;3013397;-65
2023/09/24 08:52:44;;;;;;;38.10;5.90;;;;;;;24.71;41.50;99941.77;77379;1309;3026411;-63
2023/09/24 08:55:12;;;;;;;47.50;6.40;;;;;;;24.84;41.71;99939.16;78535;1314;3011879;-65
2023/09/24 08:57:44;;;;;;;43.90;5.90;;;;;;;24.94;41.28;99935.17;78041;1312;3012145;-64
2023/09/24 09:00:14;;;;;;;36.50;6.10;;;;;;;25.00;40.68;99936.54;78531;1315;3011957;-65
2023/09/24 09:02:45;;;;;;;34.50;4.30;;;;;;;25.04;40.23;99931.91;77506;1310;3070110;-63
2023/09/24 09:05:20;;;;;;;28.40;4.70;;;;;;;25.12;40.01;99933.28;78689;1309;3011691;-65
2023/09/24 09:08:02;;;;;;;51.60;5.70;;;;;;;25.21;39.74;99936.76;77397;1309;3055944;-64
2023/09/24 09:10:32;;;;;;;35.40;5.00;;;;;;;25.30;39.77;99927.80;77217;1308;3049740;-65
2023/09/24 09:13:09;;;;;;;29.30;4.50;;;;;;;25.42;39.17;99925.73;78538;1309;3011499;-66
2023/09/24 09:15:38;;;;;;;28.40;4.10;;;;;;;25.55;38.87;99922.95;77340;1310;3049700;-65
2023/09/24 09:18:06;;;;;;;23.20;4.20;;;;;;;25.69;38.37;99919.34;78527;1309;3013087;-66
2023/09/24 09:20:43;;;;;;;20.70;4.90;;;;;;;25.79;37.19;99919.65;77471;1315;3027046;-64
2023/09/24 09:23:13;;;;;;;19.30;4.60;;;;;;;25.91;36.29;99920.59;78103;1315;3011625;-65
2023/09/24 09:25:50;;;;;;;22.30;4.50;;;;;;;26.00;35.42;99927.04;78563;1315;3012899;-64
2023/09/24 09:28:25;;;;;;;23.90;3.60;;;;;;;26.05;34.39;99925.83;77431;1314;3052453;-70
2023/09/24 09:31:11;;;;;;;14.70;3.80;;;;;;;26.09;33.28;99927.05;77358;1310;3055548;-66
2023/09/24 09:33:42;;;;;;;19.80;3.30;;;;;;;26.20;33.11;99924.86;77576;1323;3050290;-64
2023/09/24 09:36:26;;;;;;;24.90;3.00;;;;;;;26.31;32.46;99924.52;78600;1313;3011703;-65
2023/09/24 09:38:55;;;;;;;12.70;2.60;;;;;;;26.38;32.15;99927.60;74765;1314;3200158;-63
2023/09/24 09:41:23;;;;;;;21.40;3.30;;;;;;;26.43;31.90;99927.48;78682;1315;3012696;-66
2023/09/24 09:43:54;;;;;;;20.50;3.40;;;;;;;26.44;31.97;99928.27;77636;1314;3026537;-65
2023/09/24 09:46:23;;;;;;;20.00;3.00;;;;;;;26.57;31.89;99928.59;78778;1312;3012851;-64
2023/09/24 09:48:56;;;;;;;19.70;3.40;;;;;;;26.64;31.93;99922.65;77551;1309;3050451;-63
2023/09/24 09:51:27;;;;;;;16.70;3.10;;;;;;;26.73;32.24;99921.93;78152;1309;3011714;-64
2023/09/24 09:53:54;;;;;;;20.20;3.00;;;;;;;26.84;32.51;99921.23;78510;1309;3013770;-62
2023/09/24 09:56:23;;;;;;;15.90;2.80;;;;;;;26.88;31.90;99925.14;78524;1309;3013780;-64
2023/09/24 09:58:51;;;;;;;25.10;3.30;;;;;;;26.90;32.13;99920.05;77331;1311;3050087;-65
2023/09/24 10:01:20;;;;;;;21.40;3.40;;;;;;;26.89;31.73;99923.99;78438;1315;3014383;-63
2023/09/24 10:03:51;;;;;;;28.20;3.10;;;;;;;26.98;32.01;99921.98;78155;1308;3011727;-63
2023/09/24 10:06:17;;;;;;;20.80;3.00;;;;;;;27.07;32.00;99919.60;78592;1315;3013069;-64
2023/09/24 10:08:47;;;;;;;17.50;3.00;;;;;;;27.19;32.10;99922.92;78672;1308;3011856;-63
2023/09/24 10:11:34;;;;;;;22.10;3.00;;;;;;;27.26;32.11;99923.70;77511;1315;3048945;-65
2023/09/24 10:14:06;;;;;;;15.50;2.60;;;;;;;27.33;31.93;99921.99;77554;1309;3054185;-66
2023/09/24 10:16:35;;;;;;;16.20;2.50;;;;;;;27.45;31.95;99916.59;78448;1309;3012784;-66
2023/09/24 10:19:05;;;;;;;20.50;2.80;;;;;;;27.53;31.65;99917.06;77290;1316;3052650;-66
2023/09/24 10:21:39;;;;;;;18.40;2.90;;;;;;;27.60;31.33;99915.76;78539;1308;3013198;-65
2023/09/24 10:24:10;;;;;;;8.90;2.50;;;;;;;27.68;31.21;99914.66;77648;1308;3069499;-66
2023/09/24 10:26:49;;;;;;;14.30;2.30;;;;;;;27.69;30.78;99913.19;78788;1314;3011629;-65
2023/09/24 10:29:18;;;;;;;14.50;2.90;;;;;;;27.71;30.47;99911.54;77593;1308;3056707;-64
2023/09/24 10:32:11;;;;;;;13.80;2.50;;;;;;;27.73;30.24;99912.35;78994;1311;3013839;-65
2023/09/24 10:34:51;;;;;;;22.20;2.40;;;;;;;27.80;30.03;99913.90;77458;1312;3050500;-67
2023/09/24 10:37:19;;;;;;;19.90;2.80;;;;;;;27.92;30.06;99914.58;77221;1315;3052803;-64
2023/09/24 10:39:58;;;;;;;9.60;2.30;;;;;;;27.96;29.80;99912.46;78566;1314;3013360;-68
2023/09/24 10:42:27;;;;;;;10.00;2.50;;;;;;;28.06;29.69;99911.64;77506;1310;3052544;-64
2023/09/24 10:45:06;;;;;;;15.90;2.60;;;;;;;28.19;30.02;99911.98;78894;1309;3013072;-65
2023/09/24 10:47:36;;;;;;;10.20;2.70;;;;;;;28.24;29.16;99909.35;77481;1309;3054058;-66
2023/09/24 10:50:04;;;;;;;7.50;2.20;;;;;;;28.29;29.13;99902.90;78484;1315;3012897;-72
2023/09/24 10:52:52;;;;;;;14.30;3.00;;;;;;;28.30;29.01;99906.98;77335;1315;3026597;-66
2023/09/24 10:55:36;;;;;;;17.30;2.90;;;;;;;28.27;28.93;99908.67;77352;1315;3053420;-66
2023/09/24 10:58:13;;;;;;;12.50;3.00;;;;;;;28.35;28.60;99906.64;77223;1309;3070671;-68
2023/09/24 11:02:20;;;;;;;18.50;2.50;;;;;;;28.45;28.82;99899.33;80090;1301;3012740;-71
2023/09/24 11:04:46;;;;;;;10.80;2.60;;;;;;;28.46;28.56;99901.00;79288;1306;3013242;-64
2023/09/24 11:07:13;;;;;;;12.20;2.60;;;;;;;28.54;28.28;99898.97;79100;1306;3011721;-65
2023/09/24 11:09:47;;;;;;;10.60;2.50;;;;;;;28.52;27.94;99902.27;77567;1305;3026626;-65
2023/09/24 11:12:14;;;;;;;25.00;2.60;;;;;;;28.55;27.74;99894.52;79030;1303;3011549;-67
2023/09/24 11:14:42;;;;;;;16.60;2.30;;;;;;;28.58;27.75;99896.41;74948;1306;3113884;-70
2023/09/24 11:17:09;;;;;;;9.30;2.60;;;;;;;28.71;27.23;99893.58;79376;1297;3013394;-65
2023/09/24 11:19:45;;;;;;;11.10;2.90;;;;;;;28.81;27.08;99895.41;79219;1297;3011931;-66
2023/09/24 11:22:27;;;;;;;13.80;2.20;;;;;;;28.80;26.38;99895.44;78060;1300;3049815;-66